sensor_id;sensor_type;location;lat;lon;timestamp;P1;P2;P0
60816;PMS5003;51921;51.518;-3.188;2023-02-01T00:00:22;5;5;
60816;PMS5003;51921;51.518;-3.188;2023-02-01T00:02:47;8;6;
60816;PMS5003;51921;51.518;-3.188;2023-02-01T00:05:13;8;7;
60816;PMS5003;51921;51.518;-3.188;2023-02-01T00:07:38;5;5;
60816;PMS5003;51921;51.518;-3.188;2023-02-01T00:10:04;8;7;
60816;PMS5003;51921;51.518;-3.188;2023-02-01T00:12:29;5;5;
60816;PMS5003;51921;51.518;-3.188;2023-02-01T00:14:54;14;9;
60816;PMS5003;51921;51.518;-3.188;2023-02-01T00:17:19;9;7;
60816;PMS5003;51921;51.518;-3.188;2023-02-01T00:19:45;9;8;
60816;PMS5003;51921;51.518;-3.188;2023-02-01T00:22:10;6;5;
60816;PMS5003;51921;51.518;-3.188;2023-02-01T00:24:35;8;7;
60816;PMS5003;51921;51.518;-3.188;2023-02-01T00:27:01;6;5;
60816;PMS5003;51921;51.518;-3.188;2023-02-01T00:29:27;7;7;
60816;PMS5003;51921;51.518;-3.188;2023-02-01T00:31:52;10;9;
60816;PMS5003;51921;51.518;-3.188;2023-02-01T00:34:17;6;6;
60816;PMS5003;51921;51.518;-3.188;2023-02-01T00:36:43;6;5;
60816;PMS5003;51921;51.518;-3.188;2023-02-01T00:39:08;9;9;
60816;PMS5003;51921;51.518;-3.188;2023-02-01T00:41:39;9;8;
60816;PMS5003;51921;51.518;-3.188;2023-02-01T00:43:59;8;7;
60816;PMS5003;51921;51.518;-3.188;2023-02-01T00:46:25;11;10;
60816;PMS5003;51921;51.518;-3.188;2023-02-01T00:48:50;8;7;
60816;PMS5003;51921;51.518;-3.188;2023-02-01T00:51:17;13;10;
60816;PMS5003;51921;51.518;-3.188;2023-02-01T00:53:41;11;8;
60816;PMS5003;51921;51.518;-3.188;2023-02-01T00:56:07;8;6;
60816;PMS5003;51921;51.518;-3.188;2023-02-01T00:58:32;12;10;
60816;PMS5003;51921;51.518;-3.188;2023-02-01T01:01:00;7;7;
60816;PMS5003;51921;51.518;-3.188;2023-02-01T01:03:23;9;8;
60816;PMS5003;51921;51.518;-3.188;2023-02-01T01:05:49;11;8;
60816;PMS5003;51921;51.518;-3.188;2023-02-01T01:08:14;10;9;
60816;PMS5003;51921;51.518;-3.188;2023-02-01T01:10:39;13;12;
60816;PMS5003;51921;51.518;-3.188;2023-02-01T01:13:04;12;9;
60816;PMS5003;51921;51.518;-3.188;2023-02-01T01:15:30;13;9;
60816;PMS5003;51921;51.518;-3.188;2023-02-01T01:17:55;11;11;
60816;PMS5003;51921;51.518;-3.188;2023-02-01T01:20:20;10;9;
60816;PMS5003;51921;51.518;-3.188;2023-02-01T01:22:45;12;8;
60816;PMS5003;51921;51.518;-3.188;2023-02-01T01:25:11;13;9;
60816;PMS5003;51921;51.518;-3.188;2023-02-01T01:27:36;11;10;
60816;PMS5003;51921;51.518;-3.188;2023-02-01T01:30:02;9;8;
60816;PMS5003;51921;51.518;-3.188;2023-02-01T01:32:27;7;7;
60816;PMS5003;51921;51.518;-3.188;2023-02-01T01:34:52;7;6;
60816;PMS5003;51921;51.518;-3.188;2023-02-01T01:37:18;10;8;
60816;PMS5003;51921;51.518;-3.188;2023-02-01T01:39:44;7;6;
60816;PMS5003;51921;51.518;-3.188;2023-02-01T01:42:10;10;8;
60816;PMS5003;51921;51.518;-3.188;2023-02-01T01:47:00;14;8;
60816;PMS5003;51921;51.518;-3.188;2023-02-01T01:49:26;8;7;
60816;PMS5003;51921;51.518;-3.188;2023-02-01T01:51:53;6;6;
60816;PMS5003;51921;51.518;-3.188;2023-02-01T01:54:18;7;6;
60816;PMS5003;51921;51.518;-3.188;2023-02-01T01:56:42;8;8;
60816;PMS5003;51921;51.518;-3.188;2023-02-01T01:59:08;8;8;
60816;PMS5003;51921;51.518;-3.188;2023-02-01T02:01:33;10;9;
60816;PMS5003;51921;51.518;-3.188;2023-02-01T02:03:58;11;9;
60816;PMS5003;51921;51.518;-3.188;2023-02-01T02:06:28;9;8;
60816;PMS5003;51921;51.518;-3.188;2023-02-01T02:08:50;6;6;
60816;PMS5003;51921;51.518;-3.188;2023-02-01T02:11:16;10;8;
60816;PMS5003;51921;51.518;-3.188;2023-02-01T02:13:41;8;7;
60816;PMS5003;51921;51.518;-3.188;2023-02-01T02:16:12;10;8;
60816;PMS5003;51921;51.518;-3.188;2023-02-01T02:18:33;9;8;
60816;PMS5003;51921;51.518;-3.188;2023-02-01T02:21:03;7;7;
60816;PMS5003;51921;51.518;-3.188;2023-02-01T02:28:19;9;7;
60816;PMS5003;51921;51.518;-3.188;2023-02-01T02:35:30;12;8;
60816;PMS5003;51921;51.518;-3.188;2023-02-01T02:37:57;12;9;
60816;PMS5003;51921;51.518;-3.188;2023-02-01T02:40:22;10;9;
60816;PMS5003;51921;51.518;-3.188;2023-02-01T02:42:52;7;5;
60816;PMS5003;51921;51.518;-3.188;2023-02-01T02:45:12;8;8;
60816;PMS5003;51921;51.518;-3.188;2023-02-01T02:47:40;10;6;
60816;PMS5003;51921;51.518;-3.188;2023-02-01T02:50:05;9;9;
60816;PMS5003;51921;51.518;-3.188;2023-02-01T02:52:28;7;7;
60816;PMS5003;51921;51.518;-3.188;2023-02-01T02:54:53;10;8;
60816;PMS5003;51921;51.518;-3.188;2023-02-01T02:57:20;8;6;
60816;PMS5003;51921;51.518;-3.188;2023-02-01T02:59:49;11;8;
60816;PMS5003;51921;51.518;-3.188;2023-02-01T03:02:09;9;7;
60816;PMS5003;51921;51.518;-3.188;2023-02-01T03:04:35;6;5;
60816;PMS5003;51921;51.518;-3.188;2023-02-01T03:09:26;10;8;
60816;PMS5003;51921;51.518;-3.188;2023-02-01T03:11:50;8;6;
60816;PMS5003;51921;51.518;-3.188;2023-02-01T03:14:16;10;8;
60816;PMS5003;51921;51.518;-3.188;2023-02-01T03:16:43;8;6;
60816;PMS5003;51921;51.518;-3.188;2023-02-01T03:19:08;11;9;
60816;PMS5003;51921;51.518;-3.188;2023-02-01T03:21:33;9;8;
60816;PMS5003;51921;51.518;-3.188;2023-02-01T03:23:58;11;8;
60816;PMS5003;51921;51.518;-3.188;2023-02-01T03:26:23;9;7;
60816;PMS5003;51921;51.518;-3.188;2023-02-01T03:28:51;8;5;
60816;PMS5003;51921;51.518;-3.188;2023-02-01T03:31:13;8;6;
60816;PMS5003;51921;51.518;-3.188;2023-02-01T03:33:39;12;9;
60816;PMS5003;51921;51.518;-3.188;2023-02-01T03:36:07;9;7;
60816;PMS5003;51921;51.518;-3.188;2023-02-01T03:38:30;13;7;
60816;PMS5003;51921;51.518;-3.188;2023-02-01T03:40:56;8;6;
60816;PMS5003;51921;51.518;-3.188;2023-02-01T03:43:21;11;9;
60816;PMS5003;51921;51.518;-3.188;2023-02-01T03:45:48;12;9;
60816;PMS5003;51921;51.518;-3.188;2023-02-01T03:48:12;9;9;
60816;PMS5003;51921;51.518;-3.188;2023-02-01T03:50:38;11;7;
60816;PMS5003;51921;51.518;-3.188;2023-02-01T03:53:04;13;11;
60816;PMS5003;51921;51.518;-3.188;2023-02-01T03:55:28;12;11;
60816;PMS5003;51921;51.518;-3.188;2023-02-01T03:58:00;9;9;
60816;PMS5003;51921;51.518;-3.188;2023-02-01T04:00:20;12;11;
60816;PMS5003;51921;51.518;-3.188;2023-02-01T04:02:45;16;12;
60816;PMS5003;51921;51.518;-3.188;2023-02-01T04:05:10;13;11;
60816;PMS5003;51921;51.518;-3.188;2023-02-01T04:07:35;15;14;
60816;PMS5003;51921;51.518;-3.188;2023-02-01T04:10:01;11;9;
60816;PMS5003;51921;51.518;-3.188;2023-02-01T04:12:27;13;13;
60816;PMS5003;51921;51.518;-3.188;2023-02-01T04:14:52;15;14;
60816;PMS5003;51921;51.518;-3.188;2023-02-01T04:17:17;12;11;
60816;PMS5003;51921;51.518;-3.188;2023-02-01T04:19:43;16;14;
60816;PMS5003;51921;51.518;-3.188;2023-02-01T04:22:09;15;15;
60816;PMS5003;51921;51.518;-3.188;2023-02-01T04:24:34;16;14;
60816;PMS5003;51921;51.518;-3.188;2023-02-01T04:26:59;17;14;
60816;PMS5003;51921;51.518;-3.188;2023-02-01T04:29:25;15;15;
60816;PMS5003;51921;51.518;-3.188;2023-02-01T04:31:50;18;15;
60816;PMS5003;51921;51.518;-3.188;2023-02-01T04:34:16;18;14;
60816;PMS5003;51921;51.518;-3.188;2023-02-01T04:36:41;13;12;
60816;PMS5003;51921;51.518;-3.188;2023-02-01T04:39:08;17;16;
60816;PMS5003;51921;51.518;-3.188;2023-02-01T04:41:32;13;12;
60816;PMS5003;51921;51.518;-3.188;2023-02-01T04:43:57;13;12;
60816;PMS5003;51921;51.518;-3.188;2023-02-01T04:46:23;17;15;
60816;PMS5003;51921;51.518;-3.188;2023-02-01T04:48:48;16;14;
60816;PMS5003;51921;51.518;-3.188;2023-02-01T04:51:14;13;12;
60816;PMS5003;51921;51.518;-3.188;2023-02-01T04:53:39;13;12;
60816;PMS5003;51921;51.518;-3.188;2023-02-01T04:56:05;16;14;
60816;PMS5003;51921;51.518;-3.188;2023-02-01T04:58:30;16;12;
60816;PMS5003;51921;51.518;-3.188;2023-02-01T05:00:56;18;16;
60816;PMS5003;51921;51.518;-3.188;2023-02-01T05:03:21;19;15;
60816;PMS5003;51921;51.518;-3.188;2023-02-01T05:05:47;13;10;
60816;PMS5003;51921;51.518;-3.188;2023-02-01T05:08:12;10;10;
60816;PMS5003;51921;51.518;-3.188;2023-02-01T05:10:38;13;12;
60816;PMS5003;51921;51.518;-3.188;2023-02-01T05:13:04;10;9;
60816;PMS5003;51921;51.518;-3.188;2023-02-01T05:15:29;9;7;
60816;PMS5003;51921;51.518;-3.188;2023-02-01T05:17:54;8;8;
60816;PMS5003;51921;51.518;-3.188;2023-02-01T05:20:20;8;8;
60816;PMS5003;51921;51.518;-3.188;2023-02-01T05:22:45;8;7;
60816;PMS5003;51921;51.518;-3.188;2023-02-01T05:25:11;7;6;
60816;PMS5003;51921;51.518;-3.188;2023-02-01T05:27:37;10;8;
60816;PMS5003;51921;51.518;-3.188;2023-02-01T05:30:03;8;7;
60816;PMS5003;51921;51.518;-3.188;2023-02-01T05:32:27;10;8;
60816;PMS5003;51921;51.518;-3.188;2023-02-01T05:34:53;10;8;
60816;PMS5003;51921;51.518;-3.188;2023-02-01T05:37:18;7;6;
60816;PMS5003;51921;51.518;-3.188;2023-02-01T05:39:44;10;8;
60816;PMS5003;51921;51.518;-3.188;2023-02-01T05:42:09;10;9;
60816;PMS5003;51921;51.518;-3.188;2023-02-01T05:44:35;7;6;
60816;PMS5003;51921;51.518;-3.188;2023-02-01T05:47:00;8;7;
60816;PMS5003;51921;51.518;-3.188;2023-02-01T05:49:26;9;6;
60816;PMS5003;51921;51.518;-3.188;2023-02-01T05:51:51;8;7;
60816;PMS5003;51921;51.518;-3.188;2023-02-01T05:54:16;6;6;
60816;PMS5003;51921;51.518;-3.188;2023-02-01T05:56:42;9;6;
60816;PMS5003;51921;51.518;-3.188;2023-02-01T05:59:08;8;7;
60816;PMS5003;51921;51.518;-3.188;2023-02-01T06:01:33;9;6;
60816;PMS5003;51921;51.518;-3.188;2023-02-01T06:03:59;4;4;
60816;PMS5003;51921;51.518;-3.188;2023-02-01T06:06:25;7;7;
60816;PMS5003;51921;51.518;-3.188;2023-02-01T06:08:50;5;5;
60816;PMS5003;51921;51.518;-3.188;2023-02-01T06:11:16;8;7;
60816;PMS5003;51921;51.518;-3.188;2023-02-01T06:13:41;8;7;
60816;PMS5003;51921;51.518;-3.188;2023-02-01T06:16:07;11;8;
60816;PMS5003;51921;51.518;-3.188;2023-02-01T06:18:32;7;7;
60816;PMS5003;51921;51.518;-3.188;2023-02-01T06:20:59;10;7;
60816;PMS5003;51921;51.518;-3.188;2023-02-01T06:23:24;7;6;
60816;PMS5003;51921;51.518;-3.188;2023-02-01T06:25:50;6;5;
60816;PMS5003;51921;51.518;-3.188;2023-02-01T06:28:15;7;6;
60816;PMS5003;51921;51.518;-3.188;2023-02-01T06:30:40;8;8;
60816;PMS5003;51921;51.518;-3.188;2023-02-01T06:33:06;12;8;
60816;PMS5003;51921;51.518;-3.188;2023-02-01T06:35:30;9;7;
60816;PMS5003;51921;51.518;-3.188;2023-02-01T06:37:56;9;8;
60816;PMS5003;51921;51.518;-3.188;2023-02-01T06:40:27;10;8;
60816;PMS5003;51921;51.518;-3.188;2023-02-01T06:42:48;10;8;
60816;PMS5003;51921;51.518;-3.188;2023-02-01T06:45:13;8;6;
60816;PMS5003;51921;51.518;-3.188;2023-02-01T06:47:38;9;8;
60816;PMS5003;51921;51.518;-3.188;2023-02-01T06:50:03;11;9;
60816;PMS5003;51921;51.518;-3.188;2023-02-01T06:52:28;8;8;
60816;PMS5003;51921;51.518;-3.188;2023-02-01T06:54:53;8;7;
60816;PMS5003;51921;51.518;-3.188;2023-02-01T06:57:18;6;6;
60816;PMS5003;51921;51.518;-3.188;2023-02-01T06:59:44;10;9;
60816;PMS5003;51921;51.518;-3.188;2023-02-01T07:02:10;7;7;
60816;PMS5003;51921;51.518;-3.188;2023-02-01T07:04:35;10;9;
60816;PMS5003;51921;51.518;-3.188;2023-02-01T07:07:01;9;7;
60816;PMS5003;51921;51.518;-3.188;2023-02-01T07:09:26;5;5;
60816;PMS5003;51921;51.518;-3.188;2023-02-01T07:11:52;11;9;
60816;PMS5003;51921;51.518;-3.188;2023-02-01T07:14:17;6;5;
60816;PMS5003;51921;51.518;-3.188;2023-02-01T07:16:43;9;9;
60816;PMS5003;51921;51.518;-3.188;2023-02-01T07:19:08;13;8;
60816;PMS5003;51921;51.518;-3.188;2023-02-01T07:21:33;7;6;
60816;PMS5003;51921;51.518;-3.188;2023-02-01T07:23:59;8;7;
60816;PMS5003;51921;51.518;-3.188;2023-02-01T07:26:25;11;9;
60816;PMS5003;51921;51.518;-3.188;2023-02-01T07:28:51;7;7;
60816;PMS5003;51921;51.518;-3.188;2023-02-01T07:31:17;11;7;
60816;PMS5003;51921;51.518;-3.188;2023-02-01T07:33:42;12;10;
60816;PMS5003;51921;51.518;-3.188;2023-02-01T07:36:10;9;6;
60816;PMS5003;51921;51.518;-3.188;2023-02-01T07:38:33;9;6;
60816;PMS5003;51921;51.518;-3.188;2023-02-01T07:40:59;11;9;
60816;PMS5003;51921;51.518;-3.188;2023-02-01T07:43:25;9;7;
60816;PMS5003;51921;51.518;-3.188;2023-02-01T07:45:50;12;10;
60816;PMS5003;51921;51.518;-3.188;2023-02-01T07:48:15;9;9;
60816;PMS5003;51921;51.518;-3.188;2023-02-01T07:50:40;10;7;
60816;PMS5003;51921;51.518;-3.188;2023-02-01T07:53:06;7;6;
60816;PMS5003;51921;51.518;-3.188;2023-02-01T07:55:31;7;5;
60816;PMS5003;51921;51.518;-3.188;2023-02-01T07:57:57;9;8;
60816;PMS5003;51921;51.518;-3.188;2023-02-01T08:00:22;10;9;
60816;PMS5003;51921;51.518;-3.188;2023-02-01T08:02:47;5;5;
60816;PMS5003;51921;51.518;-3.188;2023-02-01T08:05:13;7;5;
60816;PMS5003;51921;51.518;-3.188;2023-02-01T08:07:38;6;5;
60816;PMS5003;51921;51.518;-3.188;2023-02-01T08:10:04;9;4;
60816;PMS5003;51921;51.518;-3.188;2023-02-01T08:12:29;8;7;
60816;PMS5003;51921;51.518;-3.188;2023-02-01T08:14:55;7;6;
60816;PMS5003;51921;51.518;-3.188;2023-02-01T08:17:20;8;6;
60816;PMS5003;51921;51.518;-3.188;2023-02-01T08:19:46;8;7;
60816;PMS5003;51921;51.518;-3.188;2023-02-01T08:22:12;8;4;
60816;PMS5003;51921;51.518;-3.188;2023-02-01T08:24:37;12;9;
60816;PMS5003;51921;51.518;-3.188;2023-02-01T08:27:02;5;5;
60816;PMS5003;51921;51.518;-3.188;2023-02-01T08:29:28;11;10;
60816;PMS5003;51921;51.518;-3.188;2023-02-01T08:31:53;7;7;
60816;PMS5003;51921;51.518;-3.188;2023-02-01T08:34:19;7;6;
60816;PMS5003;51921;51.518;-3.188;2023-02-01T08:36:44;14;11;
60816;PMS5003;51921;51.518;-3.188;2023-02-01T08:39:10;8;8;
60816;PMS5003;51921;51.518;-3.188;2023-02-01T08:41:35;10;9;
60816;PMS5003;51921;51.518;-3.188;2023-02-01T08:44:01;7;6;
60816;PMS5003;51921;51.518;-3.188;2023-02-01T08:46:27;8;8;
60816;PMS5003;51921;51.518;-3.188;2023-02-01T08:48:53;12;10;
60816;PMS5003;51921;51.518;-3.188;2023-02-01T08:51:19;11;9;
60816;PMS5003;51921;51.518;-3.188;2023-02-01T08:53:44;7;5;
60816;PMS5003;51921;51.518;-3.188;2023-02-01T08:56:10;6;5;
60816;PMS5003;51921;51.518;-3.188;2023-02-01T08:58:35;6;5;
60816;PMS5003;51921;51.518;-3.188;2023-02-01T09:01:02;9;7;
60816;PMS5003;51921;51.518;-3.188;2023-02-01T09:03:26;6;5;
60816;PMS5003;51921;51.518;-3.188;2023-02-01T09:05:51;5;4;
60816;PMS5003;51921;51.518;-3.188;2023-02-01T09:08:16;8;6;
60816;PMS5003;51921;51.518;-3.188;2023-02-01T09:10:42;12;11;
60816;PMS5003;51921;51.518;-3.188;2023-02-01T09:13:07;6;5;
60816;PMS5003;51921;51.518;-3.188;2023-02-01T09:15:33;7;7;
60816;PMS5003;51921;51.518;-3.188;2023-02-01T09:17:58;5;5;
60816;PMS5003;51921;51.518;-3.188;2023-02-01T09:20:23;5;5;
60816;PMS5003;51921;51.518;-3.188;2023-02-01T09:22:49;6;5;
60816;PMS5003;51921;51.518;-3.188;2023-02-01T09:25:14;4;4;
60816;PMS5003;51921;51.518;-3.188;2023-02-01T09:27:40;6;4;
60816;PMS5003;51921;51.518;-3.188;2023-02-01T09:30:05;6;4;
60816;PMS5003;51921;51.518;-3.188;2023-02-01T09:32:30;8;5;
60816;PMS5003;51921;51.518;-3.188;2023-02-01T09:34:56;7;5;
60816;PMS5003;51921;51.518;-3.188;2023-02-01T09:37:22;4;4;
60816;PMS5003;51921;51.518;-3.188;2023-02-01T09:39:47;3;3;
60816;PMS5003;51921;51.518;-3.188;2023-02-01T09:42:16;5;3;
60816;PMS5003;51921;51.518;-3.188;2023-02-01T09:44:43;6;5;
60816;PMS5003;51921;51.518;-3.188;2023-02-01T09:47:04;10;7;
60816;PMS5003;51921;51.518;-3.188;2023-02-01T09:49:30;11;7;
60816;PMS5003;51921;51.518;-3.188;2023-02-01T09:51:55;10;8;
60816;PMS5003;51921;51.518;-3.188;2023-02-01T09:54:22;7;5;
60816;PMS5003;51921;51.518;-3.188;2023-02-01T09:56:46;5;5;
60816;PMS5003;51921;51.518;-3.188;2023-02-01T09:59:13;8;6;
60816;PMS5003;51921;51.518;-3.188;2023-02-01T10:01:36;6;5;
60816;PMS5003;51921;51.518;-3.188;2023-02-01T10:04:02;8;7;
60816;PMS5003;51921;51.518;-3.188;2023-02-01T10:06:30;8;6;
60816;PMS5003;51921;51.518;-3.188;2023-02-01T10:08:57;7;6;
60816;PMS5003;51921;51.518;-3.188;2023-02-01T10:11:20;6;4;
60816;PMS5003;51921;51.518;-3.188;2023-02-01T10:13:45;6;6;
60816;PMS5003;51921;51.518;-3.188;2023-02-01T10:16:12;6;5;
60816;PMS5003;51921;51.518;-3.188;2023-02-01T10:18:38;6;4;
60816;PMS5003;51921;51.518;-3.188;2023-02-01T10:21:02;4;3;
60816;PMS5003;51921;51.518;-3.188;2023-02-01T10:23:35;5;5;
60816;PMS5003;51921;51.518;-3.188;2023-02-01T10:25:53;5;5;
60816;PMS5003;51921;51.518;-3.188;2023-02-01T10:28:16;6;6;
60816;PMS5003;51921;51.518;-3.188;2023-02-01T10:30:42;8;7;
60816;PMS5003;51921;51.518;-3.188;2023-02-01T10:33:12;6;5;
60816;PMS5003;51921;51.518;-3.188;2023-02-01T10:35:33;6;4;
60816;PMS5003;51921;51.518;-3.188;2023-02-01T10:37:58;3;3;
60816;PMS5003;51921;51.518;-3.188;2023-02-01T10:40:24;6;6;
60816;PMS5003;51921;51.518;-3.188;2023-02-01T10:42:49;6;4;
60816;PMS5003;51921;51.518;-3.188;2023-02-01T10:45:16;6;6;
60816;PMS5003;51921;51.518;-3.188;2023-02-01T10:47:41;6;5;
60816;PMS5003;51921;51.518;-3.188;2023-02-01T10:50:10;7;5;
60816;PMS5003;51921;51.518;-3.188;2023-02-01T10:52:34;3;3;
60816;PMS5003;51921;51.518;-3.188;2023-02-01T10:54:56;3;2;
60816;PMS5003;51921;51.518;-3.188;2023-02-01T10:57:23;4;3;
60816;PMS5003;51921;51.518;-3.188;2023-02-01T10:59:47;4;4;
60816;PMS5003;51921;51.518;-3.188;2023-02-01T11:02:15;5;5;
60816;PMS5003;51921;51.518;-3.188;2023-02-01T11:04:39;5;5;
60816;PMS5003;51921;51.518;-3.188;2023-02-01T11:07:06;5;5;
60816;PMS5003;51921;51.518;-3.188;2023-02-01T11:09:30;3;3;
60816;PMS5003;51921;51.518;-3.188;2023-02-01T11:11:57;4;4;
60816;PMS5003;51921;51.518;-3.188;2023-02-01T11:14:26;6;3;
60816;PMS5003;51921;51.518;-3.188;2023-02-01T11:16:47;3;2;
60816;PMS5003;51921;51.518;-3.188;2023-02-01T11:19:12;4;3;
60816;PMS5003;51921;51.518;-3.188;2023-02-01T11:21:38;5;4;
60816;PMS5003;51921;51.518;-3.188;2023-02-01T11:24:03;4;2;
60816;PMS5003;51921;51.518;-3.188;2023-02-01T11:26:28;5;4;
60816;PMS5003;51921;51.518;-3.188;2023-02-01T11:28:56;6;4;
60816;PMS5003;51921;51.518;-3.188;2023-02-01T11:31:20;6;3;
60816;PMS5003;51921;51.518;-3.188;2023-02-01T11:33:47;4;3;
60816;PMS5003;51921;51.518;-3.188;2023-02-01T11:36:12;6;6;
60816;PMS5003;51921;51.518;-3.188;2023-02-01T11:38:36;6;5;
60816;PMS5003;51921;51.518;-3.188;2023-02-01T11:43:27;7;5;
60816;PMS5003;51921;51.518;-3.188;2023-02-01T11:45:54;5;3;
60816;PMS5003;51921;51.518;-3.188;2023-02-01T11:48:17;4;4;
60816;PMS5003;51921;51.518;-3.188;2023-02-01T11:50:44;3;3;
60816;PMS5003;51921;51.518;-3.188;2023-02-01T11:53:18;6;4;
60816;PMS5003;51921;51.518;-3.188;2023-02-01T11:55:44;5;4;
60816;PMS5003;51921;51.518;-3.188;2023-02-01T11:58:04;6;5;
60816;PMS5003;51921;51.518;-3.188;2023-02-01T12:00:32;7;6;
60816;PMS5003;51921;51.518;-3.188;2023-02-01T12:02:57;9;6;
60816;PMS5003;51921;51.518;-3.188;2023-02-01T12:05:21;5;4;
60816;PMS5003;51921;51.518;-3.188;2023-02-01T12:07:46;3;3;
60816;PMS5003;51921;51.518;-3.188;2023-02-01T12:10:12;5;4;
60816;PMS5003;51921;51.518;-3.188;2023-02-01T12:12:34;7;7;
60816;PMS5003;51921;51.518;-3.188;2023-02-01T12:15:03;8;6;
60816;PMS5003;51921;51.518;-3.188;2023-02-01T12:22:19;4;4;
60816;PMS5003;51921;51.518;-3.188;2023-02-01T12:27:10;7;5;
60816;PMS5003;51921;51.518;-3.188;2023-02-01T12:29:34;7;5;
60816;PMS5003;51921;51.518;-3.188;2023-02-01T12:32:00;3;3;
60816;PMS5003;51921;51.518;-3.188;2023-02-01T12:34:27;4;3;
60816;PMS5003;51921;51.518;-3.188;2023-02-01T12:36:49;9;7;
60816;PMS5003;51921;51.518;-3.188;2023-02-01T12:39:16;5;4;
60816;PMS5003;51921;51.518;-3.188;2023-02-01T12:41:42;9;6;
60816;PMS5003;51921;51.518;-3.188;2023-02-01T12:44:04;4;4;
60816;PMS5003;51921;51.518;-3.188;2023-02-01T12:46:30;6;5;
60816;PMS5003;51921;51.518;-3.188;2023-02-01T12:48:56;6;2;
60816;PMS5003;51921;51.518;-3.188;2023-02-01T12:51:22;7;5;
60816;PMS5003;51921;51.518;-3.188;2023-02-01T12:53:47;6;6;
60816;PMS5003;51921;51.518;-3.188;2023-02-01T12:56:13;6;4;
60816;PMS5003;51921;51.518;-3.188;2023-02-01T12:58:39;4;4;
60816;PMS5003;51921;51.518;-3.188;2023-02-01T13:01:02;5;4;
60816;PMS5003;51921;51.518;-3.188;2023-02-01T13:03:30;5;4;
60816;PMS5003;51921;51.518;-3.188;2023-02-01T13:05:55;6;4;
60816;PMS5003;51921;51.518;-3.188;2023-02-01T13:08:21;4;4;
60816;PMS5003;51921;51.518;-3.188;2023-02-01T13:10:46;3;2;
60816;PMS5003;51921;51.518;-3.188;2023-02-01T13:13:11;5;5;
60816;PMS5003;51921;51.518;-3.188;2023-02-01T13:15:36;4;4;
60816;PMS5003;51921;51.518;-3.188;2023-02-01T13:18:01;4;3;
60816;PMS5003;51921;51.518;-3.188;2023-02-01T13:20:28;12;11;
60816;PMS5003;51921;51.518;-3.188;2023-02-01T13:22:53;15;14;
60816;PMS5003;51921;51.518;-3.188;2023-02-01T13:25:17;11;10;
60816;PMS5003;51921;51.518;-3.188;2023-02-01T13:27:42;9;9;
60816;PMS5003;51921;51.518;-3.188;2023-02-01T13:30:11;7;5;
60816;PMS5003;51921;51.518;-3.188;2023-02-01T13:32:39;8;8;
60816;PMS5003;51921;51.518;-3.188;2023-02-01T13:37:28;16;13;
60816;PMS5003;51921;51.518;-3.188;2023-02-01T13:39:52;8;7;
60816;PMS5003;51921;51.518;-3.188;2023-02-01T13:42:16;14;11;
60816;PMS5003;51921;51.518;-3.188;2023-02-01T13:44:40;21;17;
60816;PMS5003;51921;51.518;-3.188;2023-02-01T13:47:10;10;9;
60816;PMS5003;51921;51.518;-3.188;2023-02-01T13:49:31;21;14;
60816;PMS5003;51921;51.518;-3.188;2023-02-01T13:51:57;10;7;
60816;PMS5003;51921;51.518;-3.188;2023-02-01T13:54:23;8;6;
60816;PMS5003;51921;51.518;-3.188;2023-02-01T13:56:47;7;6;
60816;PMS5003;51921;51.518;-3.188;2023-02-01T14:01:38;6;6;
60816;PMS5003;51921;51.518;-3.188;2023-02-01T14:04:04;7;6;
60816;PMS5003;51921;51.518;-3.188;2023-02-01T14:06:35;10;7;
60816;PMS5003;51921;51.518;-3.188;2023-02-01T14:13:46;10;8;
60816;PMS5003;51921;51.518;-3.188;2023-02-01T14:16:13;6;5;
60816;PMS5003;51921;51.518;-3.188;2023-02-01T14:23:28;5;4;
60816;PMS5003;51921;51.518;-3.188;2023-02-01T14:26:03;6;5;
60816;PMS5003;51921;51.518;-3.188;2023-02-01T14:28:22;8;6;
60816;PMS5003;51921;51.518;-3.188;2023-02-01T14:30:44;5;5;
60816;PMS5003;51921;51.518;-3.188;2023-02-01T14:33:12;8;6;
60816;PMS5003;51921;51.518;-3.188;2023-02-01T14:35:35;6;6;
60816;PMS5003;51921;51.518;-3.188;2023-02-01T14:38:02;7;5;
60816;PMS5003;51921;51.518;-3.188;2023-02-01T14:40:26;5;5;
60816;PMS5003;51921;51.518;-3.188;2023-02-01T14:42:51;5;4;
60816;PMS5003;51921;51.518;-3.188;2023-02-01T14:47:43;6;6;
60816;PMS5003;51921;51.518;-3.188;2023-02-01T14:50:17;8;6;
60816;PMS5003;51921;51.518;-3.188;2023-02-01T14:52:34;4;3;
60816;PMS5003;51921;51.518;-3.188;2023-02-01T14:55:01;8;4;
60816;PMS5003;51921;51.518;-3.188;2023-02-01T14:57:25;5;5;
60816;PMS5003;51921;51.518;-3.188;2023-02-01T14:59:52;6;4;
60816;PMS5003;51921;51.518;-3.188;2023-02-01T15:02:18;9;7;
60816;PMS5003;51921;51.518;-3.188;2023-02-01T15:04:41;7;6;
60816;PMS5003;51921;51.518;-3.188;2023-02-01T15:07:07;7;5;
60816;PMS5003;51921;51.518;-3.188;2023-02-01T15:09:33;8;7;
60816;PMS5003;51921;51.518;-3.188;2023-02-01T15:11:59;5;4;
60816;PMS5003;51921;51.518;-3.188;2023-02-01T15:14:24;7;5;
60816;PMS5003;51921;51.518;-3.188;2023-02-01T15:16:49;9;9;
60816;PMS5003;51921;51.518;-3.188;2023-02-01T15:19:14;5;4;
60816;PMS5003;51921;51.518;-3.188;2023-02-01T15:21:46;8;6;
60816;PMS5003;51921;51.518;-3.188;2023-02-01T15:24:10;8;4;
60816;PMS5003;51921;51.518;-3.188;2023-02-01T15:26:31;7;6;
60816;PMS5003;51921;51.518;-3.188;2023-02-01T15:28:56;5;5;
60816;PMS5003;51921;51.518;-3.188;2023-02-01T15:36:17;5;4;
60816;PMS5003;51921;51.518;-3.188;2023-02-01T15:38:39;5;4;
60816;PMS5003;51921;51.518;-3.188;2023-02-01T15:41:05;7;6;
60816;PMS5003;51921;51.518;-3.188;2023-02-01T15:43:29;6;6;
60816;PMS5003;51921;51.518;-3.188;2023-02-01T15:45:55;4;3;
60816;PMS5003;51921;51.518;-3.188;2023-02-01T15:48:22;4;3;
60816;PMS5003;51921;51.518;-3.188;2023-02-01T15:50:45;11;9;
60816;PMS5003;51921;51.518;-3.188;2023-02-01T15:53:12;14;11;
60816;PMS5003;51921;51.518;-3.188;2023-02-01T15:55:37;13;12;
60816;PMS5003;51921;51.518;-3.188;2023-02-01T15:58:04;9;7;
60816;PMS5003;51921;51.518;-3.188;2023-02-01T16:00:28;7;6;
60816;PMS5003;51921;51.518;-3.188;2023-02-01T16:02:54;9;5;
60816;PMS5003;51921;51.518;-3.188;2023-02-01T16:05:27;11;8;
60816;PMS5003;51921;51.518;-3.188;2023-02-01T16:07:53;12;10;
60816;PMS5003;51921;51.518;-3.188;2023-02-01T16:15:01;19;15;
60816;PMS5003;51921;51.518;-3.188;2023-02-01T16:17:26;10;8;
60816;PMS5003;51921;51.518;-3.188;2023-02-01T16:19:52;11;10;
60816;PMS5003;51921;51.518;-3.188;2023-02-01T16:22:17;8;6;
60816;PMS5003;51921;51.518;-3.188;2023-02-01T16:24:43;8;7;
60816;PMS5003;51921;51.518;-3.188;2023-02-01T16:27:08;6;5;
60816;PMS5003;51921;51.518;-3.188;2023-02-01T16:29:33;7;6;
60816;PMS5003;51921;51.518;-3.188;2023-02-01T16:31:59;7;6;
60816;PMS5003;51921;51.518;-3.188;2023-02-01T16:34:24;9;8;
60816;PMS5003;51921;51.518;-3.188;2023-02-01T16:36:50;8;6;
60816;PMS5003;51921;51.518;-3.188;2023-02-01T16:39:15;6;5;
60816;PMS5003;51921;51.518;-3.188;2023-02-01T16:41:40;10;8;
60816;PMS5003;51921;51.518;-3.188;2023-02-01T16:44:06;6;6;
60816;PMS5003;51921;51.518;-3.188;2023-02-01T16:46:32;5;5;
60816;PMS5003;51921;51.518;-3.188;2023-02-01T16:48:57;7;6;
60816;PMS5003;51921;51.518;-3.188;2023-02-01T16:51:22;9;6;
60816;PMS5003;51921;51.518;-3.188;2023-02-01T16:53:48;6;6;
60816;PMS5003;51921;51.518;-3.188;2023-02-01T16:56:14;9;6;
60816;PMS5003;51921;51.518;-3.188;2023-02-01T16:58:39;11;9;
60816;PMS5003;51921;51.518;-3.188;2023-02-01T17:01:04;9;7;
60816;PMS5003;51921;51.518;-3.188;2023-02-01T17:03:30;9;7;